Taiki Maru — JI3464 — position and weather

sailwx.info

Track history (hours):
 
Tides and Currents Weather Stations Pressure Air Temp Water Temp Dewpoint Dewpoint Depression Visibility Wind Speed Wind Dir Waves Ship Positions

Taiki Maru

Last reported at 2016-Feb-07 18:33 UTC. Time now 2016-Feb-08 04:09 UTC.
Position N 34°40' E 134°42'.

Length 93 m; draft 5.2 m.

Type: Cargo ship. MMSI: 431300622.

Date/timePositionNaut miles runAvg speedWind from/ knotsBaromVisibWave heightAir tempDewpointWater temp
2016-Feb-07 18:33N 34°40' E 134°42'1212.4
2016-Feb-07 17:32N 34°37' E 134°57'9 8.7
2016-Feb-07 16:33N 34°33' E 135°05'1312.8
2016-Feb-07 15:32N 34°20' E 135°01'1212.0
2016-Feb-07 14:33N 34°09' E 134°59'18110.6
2016-Feb-06 21:30N 34°33' E 138°36'5913.6
2016-Feb-06 17:09N 35°03' E 139°38'914.5
2016-Feb-06 16:33N 35°10' E 139°45'1211.6
2016-Feb-06 15:33N 35°21' E 139°42'3 2.5
2016-Feb-06 14:31N 35°23' E 139°44'0 0.0
2016-Feb-06 13:31N 35°23' E 139°44'0 0.0
2016-Feb-06 12:28N 35°23' E 139°44'0 0.0
2016-Feb-06 11:31N 35°23' E 139°44'0 0.0
2016-Feb-06 10:31N 35°23' E 139°44'0 0.0
2016-Feb-06 09:31N 35°23' E 139°44'0 0.0
2016-Feb-06 08:31N 35°23' E 139°44'0 0.0
2016-Feb-06 07:31N 35°23' E 139°44'0 0.0
2016-Feb-06 06:31N 35°23' E 139°44'0 0.0
2016-Feb-06 05:31N 35°23' E 139°44'0 0.0
2016-Feb-06 04:31N 35°23' E 139°44'4 3.7
2016-Feb-06 03:31N 35°26' E 139°41'0 0.0
2016-Feb-06 02:31N 35°26' E 139°41'0 0.0
2016-Feb-06 01:31N 35°26' E 139°41'0 0.0
2016-Feb-06 00:31N 35°26' E 139°41'0 0.0
2016-Feb-05 23:31N 35°26' E 139°41'0 0.0
2016-Feb-05 22:33N 35°26' E 139°41'1 0.7
2016-Feb-05 21:31N 35°26' E 139°42'0 0.1
2016-Feb-05 20:33N 35°26' E 139°42'0 0.0
2016-Feb-05 19:33N 35°26' E 139°42'0 0.0
2016-Feb-05 18:33N 35°26' E 139°42'0 0.0
2016-Feb-05 17:33N 35°26' E 139°42'0 0.0
2016-Feb-05 16:33N 35°26' E 139°42'0 0.0
2016-Feb-05 15:33N 35°26' E 139°42'0 0.0
2016-Feb-05 14:33N 35°26' E 139°42'0 0.0
2016-Feb-05 13:33N 35°26' E 139°42'0 0.0
2016-Feb-05 12:33N 35°26' E 139°42'0 0.1
2016-Feb-05 11:33N 35°26' E 139°42'0 0.1
2016-Feb-05 10:33N 35°26' E 139°42'0 0.0
2016-Feb-05 09:33N 35°26' E 139°42'0 0.1
2016-Feb-05 08:33N 35°26' E 139°42'0 0.0
2016-Feb-05 07:33N 35°26' E 139°42'0 0.0
2016-Feb-05 06:33N 35°26' E 139°42'0 0.0
2016-Feb-05 05:33N 35°26' E 139°42'3 3.1
2016-Feb-05 04:33N 35°29' E 139°40'0 0.0
2016-Feb-05 03:33N 35°29' E 139°40'0 0.0
2016-Feb-05 02:33N 35°29' E 139°40'0 0.0
2016-Feb-05 01:33N 35°29' E 139°40'0 0.0
2016-Feb-05 00:33N 35°29' E 139°40'0 0.0
2016-Feb-04 23:33N 35°29' E 139°40'0 0.0
2016-Feb-04 22:33N 35°29' E 139°40'0 0.0
2016-Feb-04 21:33N 35°29' E 139°40'0 0.0
2016-Feb-04 20:33N 35°29' E 139°40'0 0.0
2016-Feb-04 19:33N 35°29' E 139°40'0 0.0
2016-Feb-04 18:33N 35°29' E 139°40'0 0.0
2016-Feb-04 17:33N 35°29' E 139°40'0 0.0
2016-Feb-04 16:33N 35°29' E 139°40'0 0.0
2016-Feb-04 15:33N 35°29' E 139°40'0 0.0
2016-Feb-04 14:33N 35°29' E 139°40'0 0.0
2016-Feb-04 13:33N 35°29' E 139°40'0 0.0
2016-Feb-04 12:33N 35°29' E 139°40'0 0.0
2016-Feb-04 11:33N 35°29' E 139°40'0 0.0
2016-Feb-04 10:33N 35°29' E 139°40'0 0.0
2016-Feb-04 09:33N 35°29' E 139°40'0 0.0
2016-Feb-04 08:33N 35°29' E 139°40'0 0.0
2016-Feb-04 07:33N 35°29' E 139°40'0 0.0
2016-Feb-04 06:33N 35°29' E 139°40'0 0.0
2016-Feb-04 05:33N 35°29' E 139°40'2 2.0
2016-Feb-04 04:33N 35°27' E 139°41'3 3.0
2016-Feb-04 03:33N 35°25' E 139°44'1111.3
2016-Feb-04 02:33N 35°14' E 139°47'25010.3
2016-Feb-03 02:19N 34°02' E 134°56'2312.6
2016-Feb-03 00:27N 34°25' E 135°02'1111.9
2016-Feb-02 23:33N 34°36' E 135°02'1211.8
2016-Feb-02 22:33N 34°38' E 134°48'  
2016-Jan-31 17:15N 34°41' E 134°41'1114.2
2016-Jan-31 16:30N 34°38' E 134°53'1212.5
2016-Jan-31 15:33N 34°32' E 135°05'1414.1
2016-Jan-31 14:33N 34°19' E 135°00'1413.7
2016-Jan-31 13:34N 34°05' E 135°00'4 0.1
2016-Jan-29 11:31N 34°02' E 134°58'1212.7
2016-Jan-29 10:33N 34°14' E 134°58'1413.1
2016-Jan-29 09:30N 34°28' E 135°00'910.0
2016-Jan-29 08:33N 34°37' E 134°58'  
Track history (hours):
 
Tides and Currents Weather Stations Pressure Air Temp Water Temp Dewpoint Dewpoint Depression Visibility Wind Speed Wind Dir Waves Ship Positions

Taiki Maru

Last reported at 2016-Feb-07 18:33 UTC. Time now 2016-Feb-08 04:09 UTC.
Position N 34°40' E 134°42'.

Length 93 m; draft 5.2 m.

Type: Cargo ship. MMSI: 431300622.

Date/timePositionNaut miles runAvg speedWind from/ knotsBaromVisibWave heightAir tempDewpointWater temp
2016-Feb-07 18:33N 34°40' E 134°42'1212.4
2016-Feb-07 17:32N 34°37' E 134°57'9 8.7
2016-Feb-07 16:33N 34°33' E 135°05'1312.8
2016-Feb-07 15:32N 34°20' E 135°01'1212.0
2016-Feb-07 14:33N 34°09' E 134°59'18110.6
2016-Feb-06 21:30N 34°33' E 138°36'5913.6
2016-Feb-06 17:09N 35°03' E 139°38'914.5
2016-Feb-06 16:33N 35°10' E 139°45'1211.6
2016-Feb-06 15:33N 35°21' E 139°42'3 2.5
2016-Feb-06 14:31N 35°23' E 139°44'0 0.0
2016-Feb-06 13:31N 35°23' E 139°44'0 0.0
2016-Feb-06 12:28N 35°23' E 139°44'0 0.0
2016-Feb-06 11:31N 35°23' E 139°44'0 0.0
2016-Feb-06 10:31N 35°23' E 139°44'0 0.0
2016-Feb-06 09:31N 35°23' E 139°44'0 0.0
2016-Feb-06 08:31N 35°23' E 139°44'0 0.0
2016-Feb-06 07:31N 35°23' E 139°44'0 0.0
2016-Feb-06 06:31N 35°23' E 139°44'0 0.0
2016-Feb-06 05:31N 35°23' E 139°44'0 0.0
2016-Feb-06 04:31N 35°23' E 139°44'4 3.7
2016-Feb-06 03:31N 35°26' E 139°41'0 0.0
2016-Feb-06 02:31N 35°26' E 139°41'0 0.0
2016-Feb-06 01:31N 35°26' E 139°41'0 0.0
2016-Feb-06 00:31N 35°26' E 139°41'0 0.0
2016-Feb-05 23:31N 35°26' E 139°41'0 0.0
2016-Feb-05 22:33N 35°26' E 139°41'1 0.7
2016-Feb-05 21:31N 35°26' E 139°42'0 0.1
2016-Feb-05 20:33N 35°26' E 139°42'0 0.0
2016-Feb-05 19:33N 35°26' E 139°42'0 0.0
2016-Feb-05 18:33N 35°26' E 139°42'0 0.0
2016-Feb-05 17:33N 35°26' E 139°42'0 0.0
2016-Feb-05 16:33N 35°26' E 139°42'0 0.0
2016-Feb-05 15:33N 35°26' E 139°42'0 0.0
2016-Feb-05 14:33N 35°26' E 139°42'0 0.0
2016-Feb-05 13:33N 35°26' E 139°42'0 0.0
2016-Feb-05 12:33N 35°26' E 139°42'0 0.1
2016-Feb-05 11:33N 35°26' E 139°42'0 0.1
2016-Feb-05 10:33N 35°26' E 139°42'0 0.0
2016-Feb-05 09:33N 35°26' E 139°42'0 0.1
2016-Feb-05 08:33N 35°26' E 139°42'0 0.0
2016-Feb-05 07:33N 35°26' E 139°42'0 0.0
2016-Feb-05 06:33N 35°26' E 139°42'0 0.0
2016-Feb-05 05:33N 35°26' E 139°42'3 3.1
2016-Feb-05 04:33N 35°29' E 139°40'0 0.0
2016-Feb-05 03:33N 35°29' E 139°40'0 0.0
2016-Feb-05 02:33N 35°29' E 139°40'0 0.0
2016-Feb-05 01:33N 35°29' E 139°40'0 0.0
2016-Feb-05 00:33N 35°29' E 139°40'0 0.0
2016-Feb-04 23:33N 35°29' E 139°40'0 0.0
2016-Feb-04 22:33N 35°29' E 139°40'0 0.0
2016-Feb-04 21:33N 35°29' E 139°40'0 0.0
2016-Feb-04 20:33N 35°29' E 139°40'0 0.0
2016-Feb-04 19:33N 35°29' E 139°40'0 0.0
2016-Feb-04 18:33N 35°29' E 139°40'0 0.0
2016-Feb-04 17:33N 35°29' E 139°40'0 0.0
2016-Feb-04 16:33N 35°29' E 139°40'0 0.0
2016-Feb-04 15:33N 35°29' E 139°40'0 0.0
2016-Feb-04 14:33N 35°29' E 139°40'0 0.0
2016-Feb-04 13:33N 35°29' E 139°40'0 0.0
2016-Feb-04 12:33N 35°29' E 139°40'0 0.0
2016-Feb-04 11:33N 35°29' E 139°40'0 0.0
2016-Feb-04 10:33N 35°29' E 139°40'0 0.0
2016-Feb-04 09:33N 35°29' E 139°40'0 0.0
2016-Feb-04 08:33N 35°29' E 139°40'0 0.0
2016-Feb-04 07:33N 35°29' E 139°40'0 0.0
2016-Feb-04 06:33N 35°29' E 139°40'0 0.0
2016-Feb-04 05:33N 35°29' E 139°40'2 2.0
2016-Feb-04 04:33N 35°27' E 139°41'3 3.0
2016-Feb-04 03:33N 35°25' E 139°44'1111.3
2016-Feb-04 02:33N 35°14' E 139°47'25010.3
2016-Feb-03 02:19N 34°02' E 134°56'2312.6
2016-Feb-03 00:27N 34°25' E 135°02'1111.9
2016-Feb-02 23:33N 34°36' E 135°02'1211.8
2016-Feb-02 22:33N 34°38' E 134°48'  
2016-Jan-31 17:15N 34°41' E 134°41'1114.2
2016-Jan-31 16:30N 34°38' E 134°53'1212.5
2016-Jan-31 15:33N 34°32' E 135°05'1414.1
2016-Jan-31 14:33N 34°19' E 135°00'1413.7
2016-Jan-31 13:34N 34°05' E 135°00'4 0.1
2016-Jan-29 11:31N 34°02' E 134°58'1212.7
2016-Jan-29 10:33N 34°14' E 134°58'1413.1
2016-Jan-29 09:30N 34°28' E 135°00'910.0
2016-Jan-29 08:33N 34°37' E 134°58'  

Dump ship's entire track history